Time;durP1;ratioP1;P1;durP2;ratioP2;P2;SDS_P1;SDS_P2;PMS_P1;PMS_P2;Temp;Humidity;BMP_temperature;BMP_pressure;BME280_temperature;BME280_humidity;BME280_pressure;Samples;Min_cycle;Max_cycle;Signal;HPM_P1;HPM_P2
2021/06/03 00:01:39;;;;;;;3.50;1.40;;;22.30;71.10;;;;;;5042131;28;20625;-70
2021/06/03 00:04:06;;;;;;;1.83;1.40;;;22.30;71.40;;;;;;5044975;28;20053;-70
2021/06/03 00:06:33;;;;;;;3.83;1.45;;;22.30;71.70;;;;;;5046582;28;20084;-70
2021/06/03 00:09:00;;;;;;;3.97;1.27;;;22.30;71.00;;;;;;5037565;28;20044;-69
2021/06/03 00:11:27;;;;;;;2.92;1.17;;;22.40;71.20;;;;;;5050371;28;20045;-70
2021/06/03 00:13:54;;;;;;;2.60;1.35;;;22.40;71.10;;;;;;5053161;28;20380;-70
2021/06/03 00:16:21;;;;;;;1.88;1.23;;;22.30;71.10;;;;;;5033081;28;20467;-70
2021/06/03 00:18:49;;;;;;;2.08;1.35;;;22.20;71.20;;;;;;5044282;28;20055;-70
2021/06/03 00:21:16;;;;;;;2.22;1.35;;;22.20;71.70;;;;;;5037904;28;20443;-70
2021/06/03 00:23:43;;;;;;;2.25;1.42;;;22.10;72.10;;;;;;5055606;28;20128;-70
2021/06/03 00:26:09;;;;;;;2.15;1.40;;;22.10;72.60;;;;;;5041601;28;20091;-70
2021/06/03 00:28:36;;;;;;;1.30;1.10;;;22.10;72.80;;;;;;5058008;28;20069;-70
2021/06/03 00:31:03;;;;;;;1.67;1.45;;;22.10;73.00;;;;;;5041860;28;20080;-70
2021/06/03 00:33:29;;;;;;;2.88;1.40;;;22.10;72.80;;;;;;5049398;28;20051;-70
2021/06/03 00:35:56;;;;;;;1.80;1.10;;;22.20;73.20;;;;;;5031702;28;20170;-69
2021/06/03 00:38:23;;;;;;;2.50;1.30;;;22.20;73.20;;;;;;5048162;28;20313;-70
2021/06/03 00:40:50;;;;;;;2.58;1.60;;;22.20;73.40;;;;;;5049590;28;20095;-70
2021/06/03 00:43:17;;;;;;;1.83;1.42;;;22.20;73.30;;;;;;5057878;28;20083;-69
2021/06/03 00:45:44;;;;;;;1.40;1.30;;;22.20;73.60;;;;;;5039099;28;20077;-70
2021/06/03 00:48:10;;;;;;;1.85;1.20;;;22.10;73.70;;;;;;5046317;28;20046;-69
2021/06/03 00:51:00;;;;;;;1.95;1.27;;;22.10;73.60;;;;;;5045474;28;20436;-70
2021/06/03 00:53:26;;;;;;;2.13;1.30;;;22.00;74.10;;;;;;5066458;28;20068;-70
2021/06/03 00:55:57;;;;;;;2.92;1.48;;;22.00;74.00;;;;;;5034273;28;20057;-70
2021/06/03 00:58:24;;;;;;;1.30;1.20;;;21.90;74.10;;;;;;5054478;28;20044;-69
2021/06/03 01:00:53;;;;;;;1.75;1.38;;;21.90;74.50;;;;;;5050716;28;20457;-69
2021/06/03 01:03:21;;;;;;;1.75;1.40;;;21.90;74.60;;;;;;5065632;28;20072;-69
2021/06/03 01:06:07;;;;;;;3.60;1.70;;;21.80;74.80;;;;;;5054558;28;20092;-70
2021/06/03 01:08:49;;;;;;;2.80;1.57;;;21.70;75.90;;;;;;5056197;28;20185;-70
2021/06/03 01:11:36;;;;;;;3.22;1.50;;;21.60;77.50;;;;;;5027609;28;20068;-70
2021/06/03 01:14:09;;;;;;;2.17;1.30;;;21.50;76.10;;;;;;5042069;28;20049;-70
2021/06/03 01:16:37;;;;;;;3.75;1.60;;;21.50;78.00;;;;;;5044098;28;20163;-69
2021/06/03 01:19:09;;;;;;;3.28;1.50;;;21.50;77.30;;;;;;5032064;28;20041;-69
2021/06/03 01:21:50;;;;;;;1.92;1.55;;;21.50;80.00;;;;;;5024076;28;20077;-70
2021/06/03 01:24:36;;;;;;;1.98;1.40;;;21.50;80.70;;;;;;5049789;28;20125;-70
2021/06/03 01:27:12;;;;;;;2.88;1.50;;;21.50;80.20;;;;;;5047275;28;20045;-69
2021/06/03 01:30:09;;;;;;;3.50;1.60;;;21.50;78.90;;;;;;5049292;28;20072;-70
2021/06/03 01:32:39;;;;;;;1.95;1.40;;;21.40;80.50;;;;;;5036230;28;20079;-70
2021/06/03 01:35:16;;;;;;;1.40;1.30;;;21.40;79.00;;;;;;5047021;28;20049;-70
2021/06/03 01:37:43;;;;;;;2.63;1.40;;;21.30;78.60;;;;;;5058910;28;20449;-70
2021/06/03 01:40:12;;;;;;;3.83;1.60;;;21.30;78.80;;;;;;5048051;28;20073;-70
2021/06/03 01:42:39;;;;;;;2.15;1.60;;;21.30;78.80;;;;;;5054513;28;20503;-70
2021/06/03 01:45:07;;;;;;;2.05;1.20;;;21.30;78.40;;;;;;5049607;28;20140;-70
2021/06/03 01:47:34;;;;;;;5.05;1.77;;;21.30;78.20;;;;;;5044583;28;20102;-70
2021/06/03 01:50:04;;;;;;;2.30;1.40;;;21.30;78.30;;;;;;5045313;28;20073;-70
2021/06/03 01:52:31;;;;;;;1.52;1.38;;;21.20;78.80;;;;;;5066450;28;20098;-70
2021/06/03 01:55:00;;;;;;;3.63;1.42;;;21.20;78.80;;;;;;5057275;28;20456;-70
2021/06/03 01:57:27;;;;;;;1.83;1.40;;;21.10;78.80;;;;;;5050363;28;20519;-72
2021/06/03 01:59:54;;;;;;;2.60;1.40;;;21.10;78.80;;;;;;5063616;28;20076;-70
2021/06/03 02:02:21;;;;;;;1.73;1.30;;;21.10;78.80;;;;;;5036366;28;20046;-69
2021/06/03 02:04:48;;;;;;;2.13;1.30;;;21.10;78.90;;;;;;5069056;28;20060;-70
2021/06/03 02:07:14;;;;;;;2.25;1.33;;;21.10;78.80;;;;;;5038638;28;20469;-70
2021/06/03 02:09:41;;;;;;;1.52;1.30;;;21.10;79.50;;;;;;5054992;28;20136;-70
2021/06/03 02:12:11;;;;;;;1.48;1.38;;;21.00;79.10;;;;;;5045104;28;20091;-70
2021/06/03 02:14:40;;;;;;;3.42;1.40;;;21.00;79.60;;;;;;5050429;28;20051;-70
2021/06/03 02:17:17;;;;;;;2.78;1.52;;;20.90;79.80;;;;;;5038783;28;20512;-70
2021/06/03 02:19:59;;;;;;;1.83;1.30;;;20.80;79.90;;;;;;5047527;28;20095;-70
2021/06/03 02:22:27;;;;;;;1.50;1.30;;;20.80;80.50;;;;;;5052166;28;20045;-70
2021/06/03 02:24:55;;;;;;;2.72;1.30;;;20.70;80.30;;;;;;5056540;28;20081;-70
2021/06/03 02:27:42;;;;;;;1.65;1.40;;;20.60;80.50;;;;;;5047422;28;20458;-69
2021/06/03 02:30:10;;;;;;;1.20;1.10;;;20.70;80.70;;;;;;5057544;28;20068;-70
2021/06/03 02:32:37;;;;;;;1.25;1.15;;;20.70;80.30;;;;;;5050236;28;20126;-70
2021/06/03 02:35:09;;;;;;;2.25;1.40;;;20.70;80.40;;;;;;5045017;28;20443;-70
2021/06/03 02:37:38;;;;;;;1.20;1.05;;;20.70;80.60;;;;;;5048018;28;20065;-70
2021/06/03 02:40:12;;;;;;;1.42;1.13;;;20.70;80.50;;;;;;5036365;28;20053;-70
2021/06/03 02:42:41;;;;;;;1.33;1.23;;;20.70;80.50;;;;;;5045334;28;20072;-70
2021/06/03 02:45:10;;;;;;;2.60;1.15;;;20.70;80.70;;;;;;5055691;28;20127;-70
2021/06/03 02:47:38;;;;;;;2.10;1.25;;;20.70;80.80;;;;;;5040697;28;20129;-70
2021/06/03 02:50:11;;;;;;;1.63;1.30;;;20.80;80.80;;;;;;5061592;28;20076;-70
2021/06/03 02:52:38;;;;;;;2.55;1.30;;;20.70;80.80;;;;;;5040676;28;20144;-70
2021/06/03 02:55:09;;;;;;;1.40;1.23;;;20.70;80.80;;;;;;5049194;28;20124;-70
2021/06/03 02:57:35;;;;;;;1.63;1.10;;;20.70;80.90;;;;;;5048037;28;20708;-70
2021/06/03 03:00:13;;;;;;;2.05;1.20;;;20.60;80.80;;;;;;5059723;28;20720;-70
2021/06/03 03:02:40;;;;;;;;;;;20.60;80.90;;;;;;5053781;28;20101;-70
2021/06/03 03:05:08;;;;;;;1.30;1.20;;;20.50;81.40;;;;;;5052520;28;19921;-70
2021/06/03 03:07:35;;;;;;;;;;;20.40;80.30;;;;;;5056996;28;20120;-70
2021/06/03 03:10:06;;;;;;;1.10;1.00;;;20.30;81.20;;;;;;5075364;28;20341;-69
2021/06/03 03:12:33;;;;;;;1.25;1.15;;;20.20;80.30;;;;;;5049944;28;20079;-69
2021/06/03 03:15:00;;;;;;;1.53;1.10;;;20.10;80.60;;;;;;5069416;28;20079;-70
2021/06/03 03:17:27;;;;;;;1.88;1.13;;;20.10;80.90;;;;;;5066865;28;20079;-69
2021/06/03 03:19:53;;;;;;;2.22;1.15;;;20.00;81.20;;;;;;5056534;28;20221;-69
2021/06/03 03:22:20;;;;;;;1.13;1.05;;;19.90;81.40;;;;;;5072654;28;20090;-70
2021/06/03 03:24:47;;;;;;;1.27;1.15;;;19.90;81.70;;;;;;5065986;28;20411;-69
2021/06/03 03:27:14;;;;;;;1.63;1.30;;;19.80;81.80;;;;;;5051985;28;20545;-70
2021/06/03 03:29:41;;;;;;;1.30;1.20;;;19.70;82.00;;;;;;5063454;28;20076;-70
2021/06/03 03:32:08;;;;;;;2.92;1.20;;;19.70;82.20;;;;;;5055187;28;20144;-70
2021/06/03 03:34:34;;;;;;;1.15;1.05;;;19.60;82.30;;;;;;5049654;28;20060;-70
2021/06/03 03:37:02;;;;;;;1.27;1.15;;;19.60;82.50;;;;;;5049783;28;20087;-70
2021/06/03 03:39:28;;;;;;;2.08;1.10;;;19.50;82.50;;;;;;5055662;28;20068;-70
2021/06/03 03:41:55;;;;;;;1.95;1.15;;;19.50;82.60;;;;;;5053323;28;20056;-70
2021/06/03 03:44:22;;;;;;;1.25;1.08;;;19.40;82.70;;;;;;5047399;28;20084;-70
2021/06/03 03:46:49;;;;;;;2.75;1.30;;;19.40;83.00;;;;;;5038929;28;20077;-69
2021/06/03 03:49:16;;;;;;;1.07;0.90;;;19.30;83.00;;;;;;5024490;28;20053;-69
2021/06/03 03:51:43;;;;;;;1.60;1.20;;;19.30;83.20;;;;;;5041460;28;20347;-69
2021/06/03 03:54:09;;;;;;;1.70;1.10;;;19.20;83.30;;;;;;5047498;28;20127;-69
2021/06/03 03:56:36;;;;;;;1.50;1.10;;;19.20;83.60;;;;;;5042567;28;20130;-70
2021/06/03 03:59:04;;;;;;;1.38;1.00;;;19.10;83.70;;;;;;5045509;28;20073;-70
2021/06/03 04:01:34;;;;;;;1.45;1.10;;;19.10;84.10;;;;;;5046527;28;20093;-70
2021/06/03 04:04:00;;;;;;;1.38;1.00;;;19.10;84.20;;;;;;5058646;28;20057;-70
2021/06/03 04:06:27;;;;;;;1.98;1.30;;;19.10;84.40;;;;;;5043388;28;20500;-70
2021/06/03 04:08:55;;;;;;;1.35;1.25;;;19.10;84.60;;;;;;5036664;28;20088;-69
2021/06/03 04:11:24;;;;;;;1.25;1.15;;;19.00;84.80;;;;;;5046352;28;20486;-70
2021/06/03 04:13:52;;;;;;;1.40;1.30;;;19.00;84.90;;;;;;5041115;28;20049;-70
2021/06/03 04:16:18;;;;;;;1.45;1.10;;;19.00;85.10;;;;;;5049949;28;20152;-69
2021/06/03 04:18:45;;;;;;;1.80;1.00;;;19.00;85.20;;;;;;5056400;28;20050;-70
2021/06/03 04:21:12;;;;;;;1.25;1.10;;;19.00;85.30;;;;;;5051498;28;20121;-70
2021/06/03 04:23:39;;;;;;;2.25;1.40;;;19.00;85.60;;;;;;5062715;28;20081;-70
2021/06/03 04:26:06;;;;;;;2.17;1.48;;;19.00;85.50;;;;;;5049012;28;20098;-70
2021/06/03 04:28:34;;;;;;;1.92;1.20;;;19.00;85.70;;;;;;5023358;28;20159;-70
2021/06/03 04:31:00;;;;;;;1.30;1.20;;;19.00;85.80;;;;;;5043272;28;20103;-70
2021/06/03 04:33:27;;;;;;;2.38;1.10;;;19.00;86.10;;;;;;5037425;28;20095;-70
2021/06/03 04:35:54;;;;;;;4.15;1.42;;;19.00;86.30;;;;;;5045676;28;20096;-69
2021/06/03 04:38:20;;;;;;;1.75;1.33;;;19.00;86.40;;;;;;5065053;28;20460;-70
2021/06/03 04:40:48;;;;;;;2.17;1.30;;;19.00;86.60;;;;;;5045237;28;20110;-70
2021/06/03 04:43:15;;;;;;;1.57;1.20;;;19.00;86.90;;;;;;5070819;28;20460;-69
2021/06/03 04:45:42;;;;;;;1.75;1.10;;;19.00;87.10;;;;;;5050479;28;20684;-70
2021/06/03 04:48:09;;;;;;;1.70;1.20;;;19.00;87.30;;;;;;5062282;28;20102;-70
2021/06/03 04:50:37;;;;;;;2.63;1.10;;;19.00;87.40;;;;;;5057126;28;20186;-70
2021/06/03 04:53:05;;;;;;;1.25;1.15;;;19.00;87.80;;;;;;5067432;28;20511;-69
2021/06/03 04:55:32;;;;;;;1.67;1.30;;;19.00;88.10;;;;;;5057021;28;20076;-69
2021/06/03 04:58:00;;;;;;;1.73;1.25;;;19.10;88.50;;;;;;5042248;28;20085;-70
2021/06/03 05:00:33;;;;;;;1.45;1.00;;;19.20;88.80;;;;;;5051362;28;20492;-70
2021/06/03 05:03:01;;;;;;;1.30;1.20;;;19.30;88.90;;;;;;5054000;28;20049;-70
2021/06/03 05:05:29;;;;;;;1.95;1.20;;;19.30;89.00;;;;;;5054148;28;20072;-69
2021/06/03 05:07:56;;;;;;;1.58;1.27;;;19.30;89.20;;;;;;5054834;28;20080;-70
2021/06/03 05:10:26;;;;;;;1.90;1.30;;;19.30;89.50;;;;;;5054884;28;20048;-70
2021/06/03 05:12:53;;;;;;;1.48;1.20;;;19.30;89.70;;;;;;5046252;28;20492;-70
2021/06/03 05:15:20;;;;;;;1.58;1.30;;;19.30;89.80;;;;;;5057477;28;20076;-70
2021/06/03 05:17:49;;;;;;;1.00;1.00;;;19.40;90.10;;;;;;5052193;28;20247;-68
2021/06/03 05:20:19;;;;;;;1.42;1.30;;;19.50;90.20;;;;;;5061112;28;20172;-68
2021/06/03 05:22:46;;;;;;;2.33;1.50;;;19.60;90.40;;;;;;5052459;28;20041;-68
2021/06/03 05:25:17;;;;;;;2.63;1.70;;;19.70;90.70;;;;;;5061035;28;20052;-68
2021/06/03 05:27:44;;;;;;;3.33;2.30;;;19.90;90.90;;;;;;5041135;28;20474;-68
2021/06/03 05:30:13;;;;;;;2.38;1.80;;;20.00;91.00;;;;;;5065244;28;20080;-68
2021/06/03 05:32:40;;;;;;;3.50;2.50;;;20.10;91.20;;;;;;5030343;28;20114;-68
2021/06/03 05:35:10;;;;;;;3.20;2.17;;;20.10;91.20;;;;;;5053595;28;20079;-68
2021/06/03 05:37:37;;;;;;;3.10;2.47;;;20.20;91.50;;;;;;5055310;28;20140;-68
2021/06/03 05:40:06;;;;;;;2.80;2.50;;;20.20;92.10;;;;;;5054420;28;20075;-68
2021/06/03 05:42:33;;;;;;;3.42;2.70;;;20.30;92.20;;;;;;5047656;28;20723;-67
2021/06/03 05:45:04;;;;;;;3.63;2.45;;;20.30;92.60;;;;;;5032993;28;20052;-68
2021/06/03 05:47:31;;;;;;;4.10;3.00;;;20.40;92.80;;;;;;5046718;28;20059;-68
2021/06/03 05:49:58;;;;;;;3.33;2.90;;;20.40;92.90;;;;;;5055653;28;20118;-68
2021/06/03 05:52:24;;;;;;;3.60;2.88;;;20.50;93.00;;;;;;5055817;28;20125;-68
2021/06/03 05:54:51;;;;;;;4.20;2.90;;;20.60;93.20;;;;;;5057989;28;20076;-68
2021/06/03 05:57:18;;;;;;;3.17;2.80;;;20.70;93.40;;;;;;5049836;28;20076;-67
2021/06/03 05:59:45;;;;;;;4.55;3.33;;;20.70;93.70;;;;;;5048641;28;20072;-67
2021/06/03 06:02:18;;;;;;;4.60;3.30;;;20.80;94.00;;;;;;5048427;28;20132;-68
2021/06/03 06:07:30;;;;;;;5.50;3.45;;;20.90;94.00;;;;;;5042201;28;20081;-68
2021/06/03 06:09:57;;;;;;;3.55;3.25;;;21.00;94.00;;;;;;5041417;28;20076;-68
2021/06/03 06:12:48;;;;;;;4.45;3.47;;;21.10;94.90;;;;;;5045207;28;20114;-68
2021/06/03 06:15:15;;;;;;;5.50;3.53;;;21.10;94.60;;;;;;5060007;28;20535;-68
2021/06/03 06:17:43;;;;;;;4.47;3.80;;;21.10;94.70;;;;;;5056884;28;20068;-68
2021/06/03 06:20:11;;;;;;;6.28;4.15;;;21.20;95.20;;;;;;5059700;28;20084;-67
2021/06/03 06:22:38;;;;;;;4.95;4.20;;;21.10;95.90;;;;;;5055910;28;20073;-67
2021/06/03 06:25:06;;;;;;;4.55;4.00;;;21.20;95.80;;;;;;5070988;28;20052;-67
2021/06/03 06:27:33;;;;;;;4.90;4.25;;;21.30;96.20;;;;;;5047901;28;20073;-68
2021/06/03 06:30:00;;;;;;;4.85;3.80;;;21.30;96.20;;;;;;5058410;28;20045;-67
2021/06/03 06:32:28;;;;;;;5.40;4.22;;;21.40;96.30;;;;;;5041716;28;20072;-68
2021/06/03 06:34:55;;;;;;;5.20;4.35;;;21.50;96.70;;;;;;5051056;28;20072;-67
2021/06/03 06:37:22;;;;;;;4.32;3.92;;;21.60;97.00;;;;;;5063139;28;20079;-68
2021/06/03 06:39:48;;;;;;;5.13;4.13;;;21.60;97.50;;;;;;5064764;28;20084;-68
2021/06/03 06:42:15;;;;;;;4.93;3.60;;;21.70;97.40;;;;;;5064937;28;20144;-68
2021/06/03 06:44:42;;;;;;;4.43;3.97;;;21.70;97.60;;;;;;5063510;28;20087;-68
2021/06/03 06:47:08;;;;;;;5.40;4.13;;;21.80;98.00;;;;;;5065138;28;20440;-67
2021/06/03 06:49:35;;;;;;;6.22;4.05;;;21.70;97.90;;;;;;5049545;28;20045;-68
2021/06/03 06:52:02;;;;;;;4.78;4.05;;;21.70;98.40;;;;;;5056682;28;20072;-68
2021/06/03 06:54:29;;;;;;;5.75;4.20;;;21.70;98.00;;;;;;5044067;28;20138;-68
2021/06/03 06:56:56;;;;;;;6.05;4.30;;;21.70;98.30;;;;;;5050007;28;20109;-68
2021/06/03 06:59:23;;;;;;;6.32;4.60;;;21.70;98.70;;;;;;5059642;28;20079;-67
2021/06/03 07:01:49;;;;;;;5.97;4.35;;;21.80;99.00;;;;;;5046269;28;20053;-67
2021/06/03 07:04:16;;;;;;;7.45;5.10;;;21.80;99.00;;;;;;5062820;28;20524;-68
2021/06/03 07:06:43;;;;;;;6.03;4.50;;;21.80;99.30;;;;;;5049465;28;20041;-68
2021/06/03 07:09:10;;;;;;;5.30;4.30;;;21.80;99.40;;;;;;5056433;28;20472;-68
2021/06/03 07:11:37;;;;;;;6.85;4.90;;;21.80;99.40;;;;;;5054950;28;20150;-67
2021/06/03 07:14:13;;;;;;;5.65;4.60;;;21.90;99.60;;;;;;5067507;28;20142;-68
2021/06/03 07:16:40;;;;;;;10.18;5.05;;;22.00;99.90;;;;;;5054182;28;20167;-67
2021/06/03 07:19:07;;;;;;;5.90;4.80;;;22.10;99.90;;;;;;5055329;28;20164;-67
2021/06/03 07:21:34;;;;;;;5.72;4.95;;;22.10;99.90;;;;;;5028979;28;20095;-67
2021/06/03 07:24:01;;;;;;;5.53;5.00;;;22.20;99.90;;;;;;5044941;28;20049;-67
2021/06/03 07:26:27;;;;;;;5.13;4.55;;;22.20;99.90;;;;;;5050234;28;20076;-68
2021/06/03 07:28:54;;;;;;;5.43;4.65;;;22.20;99.90;;;;;;5049152;28;20099;-68
2021/06/03 07:31:21;;;;;;;5.07;4.35;;;22.30;99.90;;;;;;5055353;28;20172;-68
2021/06/03 07:33:48;;;;;;;6.28;5.00;;;22.30;99.90;;;;;;5062236;28;20094;-68
2021/06/03 07:36:15;;;;;;;6.70;5.45;;;22.20;99.90;;;;;;5054756;28;20561;-68
2021/06/03 07:38:41;;;;;;;5.72;4.82;;;22.10;99.90;;;;;;5079689;28;20075;-68
2021/06/03 07:41:08;;;;;;;5.13;4.22;;;22.10;99.90;;;;;;5051097;28;20080;-68
2021/06/03 07:43:35;;;;;;;4.80;3.90;;;22.10;99.90;;;;;;5063546;28;20489;-68
2021/06/03 07:46:02;;;;;;;5.38;4.60;;;22.20;99.90;;;;;;5055045;28;20457;-69
2021/06/03 07:48:29;;;;;;;6.07;4.40;;;22.40;99.90;;;;;;5064274;28;20123;-68
2021/06/03 07:50:55;;;;;;;4.40;3.63;;;22.50;99.90;;;;;;5053036;28;20073;-68
2021/06/03 07:53:22;;;;;;;5.07;4.07;;;22.60;99.90;;;;;;5059037;28;20084;-68
2021/06/03 07:55:49;;;;;;;6.93;4.28;;;22.70;99.90;;;;;;5050730;28;20076;-69
2021/06/03 07:58:16;;;;;;;5.35;3.97;;;22.80;99.90;;;;;;5056133;28;20077;-68
2021/06/03 08:00:44;;;;;;;4.40;3.77;;;22.90;99.90;;;;;;5054843;28;20493;-68
2021/06/03 08:03:11;;;;;;;4.47;4.00;;;22.90;99.90;;;;;;5046372;28;20069;-68
2021/06/03 08:05:38;;;;;;;4.22;3.78;;;23.00;99.90;;;;;;5058150;28;20476;-68
2021/06/03 08:08:05;;;;;;;4.20;3.78;;;23.10;99.90;;;;;;5059194;28;20111;-69
2021/06/03 08:10:36;;;;;;;8.23;4.40;;;23.10;99.90;;;;;;5055847;28;20076;-69
2021/06/03 08:13:03;;;;;;;4.63;3.92;;;23.00;99.90;;;;;;5059411;28;20508;-69
2021/06/03 08:15:31;;;;;;;4.97;3.97;;;23.00;99.90;;;;;;5049059;28;20064;-69
2021/06/03 08:17:58;;;;;;;5.40;4.45;;;23.00;99.90;;;;;;5055437;28;20482;-69
2021/06/03 08:20:29;;;;;;;4.45;3.63;;;23.00;99.90;;;;;;5065358;28;20047;-69
2021/06/03 08:22:57;;;;;;;4.55;3.50;;;23.10;99.90;;;;;;5044668;28;20080;-71
2021/06/03 08:25:24;;;;;;;5.55;3.78;;;23.10;99.90;;;;;;5058349;28;20508;-69
2021/06/03 08:27:51;;;;;;;6.20;3.92;;;23.10;99.90;;;;;;5054985;28;20068;-69
2021/06/03 08:30:19;;;;;;;;;;;23.10;99.90;;;;;;5065589;28;20086;-70
2021/06/03 08:32:48;;;;;;;7.00;4.40;;;23.10;99.90;;;;;;5055527;28;19984;-69
2021/06/03 08:35:19;;;;;;;4.40;4.00;;;23.10;99.90;;;;;;5061494;28;20444;-70
2021/06/03 08:37:50;;;;;;;5.50;3.90;;;23.10;99.90;;;;;;5053808;28;20073;-70
2021/06/03 08:40:24;;;;;;;5.50;4.53;;;23.00;99.90;;;;;;5062822;28;20072;-69
2021/06/03 08:42:52;;;;;;;5.80;4.25;;;23.10;99.90;;;;;;5044234;28;20049;-69
2021/06/03 08:45:21;;;;;;;6.43;4.93;;;23.10;99.90;;;;;;5047766;28;20084;-69
2021/06/03 08:47:48;;;;;;;4.50;3.70;;;23.20;99.90;;;;;;5052610;28;20440;-69
2021/06/03 08:50:15;;;;;;;5.00;3.92;;;23.30;99.90;;;;;;5074254;28;20133;-70
2021/06/03 08:52:42;;;;;;;5.33;3.70;;;23.30;99.90;;;;;;5056272;28;20068;-70
2021/06/03 08:56:13;;;;;;;6.28;3.55;;;23.30;99.90;;;;;;5042242;28;20068;-68
2021/06/03 08:58:04;;;;;;;3.67;3.28;;;23.40;99.90;;;;;;5059136;28;20149;-69
2021/06/03 09:00:32;;;;;;;3.92;3.53;;;23.50;99.90;;;;;;5058446;28;20095;-68
2021/06/03 09:02:59;;;;;;;3.35;2.78;;;23.60;99.90;;;;;;5038429;28;20517;-69
2021/06/03 09:05:28;;;;;;;5.90;3.25;;;23.80;99.90;;;;;;5054564;28;20127;-68
2021/06/03 09:07:55;;;;;;;5.68;3.65;;;23.80;99.90;;;;;;5029049;28;20471;-68
2021/06/03 09:10:29;;;;;;;5.18;3.25;;;23.90;99.90;;;;;;5050940;28;20072;-69
2021/06/03 09:13:16;;;;;;;5.10;3.75;;;23.90;99.90;;;;;;5038542;28;20128;-70
2021/06/03 09:15:46;;;;;;;5.28;3.30;;;23.90;99.90;;;;;;5053970;28;20064;-68
2021/06/03 09:18:14;;;;;;;4.97;3.88;;;24.00;99.90;;;;;;5065999;28;20501;-69
2021/06/03 09:20:45;;;;;;;5.10;4.10;;;24.00;99.90;;;;;;5050902;28;20041;-68
2021/06/03 09:23:31;;;;;;;4.47;3.38;;;23.90;99.90;;;;;;5051335;28;20133;-69
2021/06/03 09:26:04;;;;;;;5.25;3.40;;;23.80;99.90;;;;;;5050044;28;20563;-70
2021/06/03 09:28:36;;;;;;;5.65;4.20;;;23.80;99.90;;;;;;5061448;28;20537;-70
2021/06/03 09:31:07;;;;;;;5.85;4.60;;;23.80;99.90;;;;;;5042094;28;20480;-69
2021/06/03 09:33:39;;;;;;;5.43;4.28;;;23.70;99.90;;;;;;5039363;28;20553;-70
2021/06/03 09:36:08;;;;;;;4.80;3.88;;;23.70;99.90;;;;;;5050311;28;20481;-69
2021/06/03 09:38:36;;;;;;;5.72;4.80;;;23.80;99.90;;;;;;5068270;28;20215;-69
2021/06/03 09:41:04;;;;;;;6.28;4.88;;;23.80;99.90;;;;;;5056653;28;20073;-70
2021/06/03 09:43:30;;;;;;;5.78;4.43;;;23.80;99.90;;;;;;5068911;28;20052;-70
2021/06/03 09:46:01;;;;;;;5.45;4.78;;;23.90;99.90;;;;;;5060233;28;20087;-69
2021/06/03 09:48:46;;;;;;;8.25;5.88;;;24.00;99.90;;;;;;5050766;28;20077;-69
2021/06/03 09:51:17;;;;;;;6.03;5.10;;;24.00;99.90;;;;;;5050321;28;20077;-69
2021/06/03 09:54:04;;;;;;;5.68;5.07;;;24.10;99.90;;;;;;5063545;28;20135;-69
2021/06/03 09:56:52;;;;;;;6.50;5.20;;;24.20;99.90;;;;;;5048982;28;20076;-69
2021/06/03 09:59:22;;;;;;;5.20;4.63;;;24.20;99.90;;;;;;5045106;28;20053;-69
2021/06/03 10:01:48;;;;;;;5.22;4.57;;;24.30;99.90;;;;;;5045251;28;20092;-69
2021/06/03 10:04:25;;;;;;;6.15;5.32;;;24.30;99.90;;;;;;5055785;28;20559;-68
2021/06/03 10:06:53;;;;;;;7.13;5.82;;;24.20;99.90;;;;;;5047046;28;20621;-69
2021/06/03 10:09:40;;;;;;;6.80;5.72;;;24.20;99.90;;;;;;5055278;28;20076;-68
2021/06/03 10:12:23;;;;;;;5.70;4.63;;;24.20;99.90;;;;;;5055219;28;20484;-69
2021/06/03 10:15:04;;;;;;;5.63;4.50;;;24.10;99.90;;;;;;5060280;28;20044;-69
2021/06/03 10:17:36;;;;;;;4.78;4.38;;;24.00;99.90;;;;;;5042253;28;20083;-69
2021/06/03 10:20:08;;;;;;;4.57;3.75;;;24.00;99.90;;;;;;5052293;28;20044;-70
2021/06/03 10:22:47;;;;;;;5.47;4.45;;;24.00;99.90;;;;;;5041231;28;20143;-70
2021/06/03 10:25:25;;;;;;;5.32;3.95;;;24.10;99.90;;;;;;5052564;28;20140;-69
2021/06/03 10:27:58;;;;;;;5.85;4.07;;;24.20;99.90;;;;;;5047220;28;20480;-69
2021/06/03 10:30:29;;;;;;;6.45;5.68;;;24.20;99.90;;;;;;5044009;28;20473;-69
2021/06/03 10:32:59;;;;;;;7.30;5.15;;;24.30;99.90;;;;;;5043558;28;20583;-70
2021/06/03 10:35:30;;;;;;;7.10;5.72;;;24.30;99.90;;;;;;5051382;28;20037;-69
2021/06/03 10:37:57;;;;;;;8.27;5.78;;;24.30;99.90;;;;;;5070025;28;20132;-68
2021/06/03 10:40:36;;;;;;;6.35;5.20;;;24.40;99.90;;;;;;5070926;28;20045;-69
2021/06/03 10:43:04;;;;;;;5.82;4.90;;;24.40;99.90;;;;;;5054477;28;20505;-69
2021/06/03 10:45:32;;;;;;;4.85;3.83;;;24.40;99.90;;;;;;5057072;28;20095;-70
2021/06/03 10:47:59;;;;;;;7.35;5.10;;;24.40;99.90;;;;;;5043898;28;20049;-69
2021/06/03 10:50:34;;;;;;;5.35;4.57;;;24.50;99.90;;;;;;5057787;28;20480;-70
2021/06/03 10:53:09;;;;;;;5.05;4.20;;;24.50;99.90;;;;;;5057949;28;20073;-70
2021/06/03 10:55:40;;;;;;;5.63;4.75;;;24.60;99.90;;;;;;5054580;28;20157;-68
2021/06/03 10:58:08;;;;;;;7.82;5.40;;;24.60;99.90;;;;;;5076137;28;20084;-68
2021/06/03 11:00:44;;;;;;;5.10;4.10;;;24.60;99.90;;;;;;5049255;28;20274;-69
2021/06/03 11:03:16;;;;;;;5.38;4.00;;;24.60;99.90;;;;;;5064029;28;20061;-70
2021/06/03 11:05:46;;;;;;;6.13;4.20;;;24.50;99.90;;;;;;5049328;28;20037;-71
2021/06/03 11:08:35;;;;;;;4.55;4.15;;;24.50;99.90;;;;;;5064133;28;20076;-69
2021/06/03 11:11:11;;;;;;;5.40;3.63;;;24.60;99.90;;;;;;5043447;28;20194;-69
2021/06/03 11:13:57;;;;;;;6.03;3.97;;;24.50;99.90;;;;;;5059227;28;20077;-69
2021/06/03 11:16:42;;;;;;;5.50;3.73;;;24.60;99.90;;;;;;5049802;28;20048;-68
2021/06/03 11:19:10;;;;;;;5.40;4.43;;;24.70;99.90;;;;;;5048346;28;20546;-69
2021/06/03 11:21:45;;;;;;;5.05;3.40;;;24.70;99.90;;;;;;5046654;28;20041;-70
2021/06/03 11:24:34;;;;;;;4.97;3.25;;;24.70;99.90;;;;;;5041649;28;20484;-69
2021/06/03 11:27:08;;;;;;;5.63;4.47;;;24.60;99.90;;;;;;5053115;28;20040;-69
2021/06/03 11:29:41;;;;;;;4.72;4.05;;;24.50;99.90;;;;;;5047419;28;20076;-69
2021/06/03 11:32:15;;;;;;;6.90;5.68;;;24.30;99.90;;;;;;5055304;28;20136;-69
2021/06/03 11:34:47;;;;;;;7.03;5.30;;;24.20;99.90;;;;;;5066178;28;20041;-69
2021/06/03 11:37:24;;;;;;;5.82;4.63;;;24.20;99.90;;;;;;5061871;28;20080;-70
2021/06/03 11:40:10;;;;;;;6.15;4.53;;;24.20;99.90;;;;;;5050504;28;20378;-70
2021/06/03 11:42:41;;;;;;;5.25;4.47;;;24.20;99.90;;;;;;5047034;28;20057;-69
2021/06/03 11:45:17;;;;;;;5.53;4.55;;;24.20;99.90;;;;;;5050963;28;20083;-70
2021/06/03 11:47:44;;;;;;;6.97;4.85;;;24.30;99.90;;;;;;5048197;28;20083;-69
2021/06/03 11:50:17;;;;;;;5.55;4.20;;;24.50;99.90;;;;;;5041375;28;20096;-69
2021/06/03 11:52:58;;;;;;;6.63;4.50;;;24.60;99.90;;;;;;5049135;28;20438;-68
2021/06/03 11:55:44;;;;;;;6.20;4.75;;;24.70;99.90;;;;;;5061283;28;20044;-68
2021/06/03 11:58:23;;;;;;;5.70;4.63;;;24.70;99.90;;;;;;5054026;28;20394;-70
2021/06/03 12:00:59;;;;;;;6.15;4.70;;;24.60;99.90;;;;;;5050930;28;20362;-69
2021/06/03 12:03:32;;;;;;;5.70;4.95;;;24.50;99.90;;;;;;5073964;28;20048;-69
2021/06/03 12:06:04;;;;;;;5.85;4.40;;;24.50;99.90;;;;;;5061683;28;20052;-68
2021/06/03 12:08:41;;;;;;;7.75;4.53;;;24.40;99.90;;;;;;5060096;28;20112;-69
2021/06/03 12:11:12;;;;;;;6.90;4.43;;;24.40;99.90;;;;;;5047056;28;20488;-69
2021/06/03 12:13:39;;;;;;;5.80;4.60;;;24.40;99.90;;;;;;5054491;28;20041;-69
2021/06/03 12:16:07;;;;;;;6.45;4.32;;;24.50;99.90;;;;;;5045432;28;20041;-69
2021/06/03 12:18:41;;;;;;;4.97;3.83;;;24.70;99.90;;;;;;5048381;28;20057;-69
2021/06/03 12:21:11;;;;;;;3.65;3.00;;;24.80;99.90;;;;;;5041336;28;20041;-69
2021/06/03 12:23:52;;;;;;;6.85;3.08;;;24.90;99.90;;;;;;5058290;28;20049;-69
2021/06/03 12:26:22;;;;;;;4.85;3.58;;;25.10;99.90;;;;;;5039925;28;20080;-69
2021/06/03 12:28:49;;;;;;;5.80;3.40;;;25.10;99.90;;;;;;5058110;28;20054;-70
2021/06/03 12:31:21;;;;;;;4.35;3.65;;;25.30;99.90;;;;;;5034149;28;20044;-70
2021/06/03 12:33:48;;;;;;;4.55;3.63;;;25.40;99.90;;;;;;5053592;28;20485;-70
2021/06/03 12:36:15;;;;;;;4.03;3.20;;;25.40;99.90;;;;;;5052763;28;20133;-70
2021/06/03 12:38:50;;;;;;;4.60;3.60;;;25.40;99.90;;;;;;5062965;28;20098;-69
2021/06/03 12:41:21;;;;;;;6.53;3.90;;;25.30;99.90;;;;;;5055706;28;20072;-69
2021/06/03 12:43:59;;;;;;;4.47;3.53;;;25.20;99.90;;;;;;5060133;28;20063;-70
2021/06/03 12:46:33;;;;;;;4.15;3.22;;;25.10;99.90;;;;;;5059560;28;20052;-69
2021/06/03 12:49:12;;;;;;;4.30;3.15;;;25.10;99.90;;;;;;5063932;28;20066;-70
2021/06/03 12:51:56;;;;;;;5.72;3.75;;;25.10;99.90;;;;;;5036131;28;20049;-70
2021/06/03 12:54:34;;;;;;;7.53;4.30;;;25.00;99.90;;;;;;5034406;28;20080;-69
2021/06/03 12:57:04;;;;;;;6.32;4.72;;;25.00;99.90;;;;;;5046887;28;20059;-69
2021/06/03 12:59:32;;;;;;;5.53;4.35;;;24.90;99.90;;;;;;5056580;28;20454;-69
2021/06/03 13:02:11;;;;;;;5.15;3.92;;;24.80;99.90;;;;;;5050082;28;20083;-69
2021/06/03 13:04:44;;;;;;;7.30;4.80;;;24.80;99.90;;;;;;5058699;28;20079;-69
2021/06/03 13:07:14;;;;;;;5.78;4.53;;;24.80;99.90;;;;;;5060951;28;20044;-70